sensor_id;sensor_type;location;lat;lon;timestamp;pressure;altitude;pressure_sealevel;temperature;humidity
76603;BME280;65075;48.390;17.598;2024-01-06T00:00:11;98708.06;;;11.87;52.35
76603;BME280;65075;48.390;17.598;2024-01-06T00:02:38;98682.16;;;11.47;53.09
76603;BME280;65075;48.390;17.598;2024-01-06T00:05:06;98682.91;;;10.78;55.71
76603;BME280;65075;48.390;17.598;2024-01-06T00:07:33;98701.69;;;11.78;52.42
76603;BME280;65075;48.390;17.598;2024-01-06T00:10:04;98638.88;;;11.41;52.65
76603;BME280;65075;48.390;17.598;2024-01-06T00:12:31;98665.38;;;11.91;51.84
76603;BME280;65075;48.390;17.598;2024-01-06T00:14:59;98691.25;;;10.11;55.57
76603;BME280;65075;48.390;17.598;2024-01-06T00:17:26;98675.47;;;11.40;54.17
76603;BME280;65075;48.390;17.598;2024-01-06T00:19:52;98678.06;;;12.01;52.07
76603;BME280;65075;48.390;17.598;2024-01-06T00:22:19;98674.97;;;10.58;56.13
76603;BME280;65075;48.390;17.598;2024-01-06T00:24:46;98672.53;;;11.87;52.58
76603;BME280;65075;48.390;17.598;2024-01-06T00:27:13;98676.47;;;10.69;55.99
76603;BME280;65075;48.390;17.598;2024-01-06T00:29:40;98673.84;;;11.20;53.75
76603;BME280;65075;48.390;17.598;2024-01-06T00:32:07;98670.16;;;10.93;53.64
76603;BME280;65075;48.390;17.598;2024-01-06T00:34:34;98671.41;;;10.58;56.13
76603;BME280;65075;48.390;17.598;2024-01-06T00:37:01;98663.53;;;10.99;53.77
76603;BME280;65075;48.390;17.598;2024-01-06T00:39:28;98677.00;;;11.83;51.68
76603;BME280;65075;48.390;17.598;2024-01-06T00:41:54;98676.78;;;11.80;51.79
76603;BME280;65075;48.390;17.598;2024-01-06T00:44:20;98670.38;;;11.33;53.01
76603;BME280;65075;48.390;17.598;2024-01-06T00:46:47;98673.94;;;12.17;50.82
76603;BME280;65075;48.390;17.598;2024-01-06T00:49:34;98682.56;;;12.38;49.40
76603;BME280;65075;48.390;17.598;2024-01-06T00:52:01;98669.19;;;11.90;50.91
76603;BME280;65075;48.390;17.598;2024-01-06T00:54:28;98668.59;;;11.61;51.58
76603;BME280;65075;48.390;17.598;2024-01-06T00:56:55;98686.78;;;10.72;54.75
76603;BME280;65075;48.390;17.598;2024-01-06T00:59:22;98687.53;;;12.63;49.27
76603;BME280;65075;48.390;17.598;2024-01-06T01:01:49;98679.78;;;12.11;51.05
76603;BME280;65075;48.390;17.598;2024-01-06T01:04:16;98685.13;;;12.75;49.64
76603;BME280;65075;48.390;17.598;2024-01-06T01:06:42;98677.09;;;11.04;53.62
76603;BME280;65075;48.390;17.598;2024-01-06T01:09:09;98663.31;;;12.16;51.39
76603;BME280;65075;48.390;17.598;2024-01-06T01:11:36;98675.47;;;12.91;49.83
76603;BME280;65075;48.390;17.598;2024-01-06T01:14:03;98674.53;;;14.12;46.37
76603;BME280;65075;48.390;17.598;2024-01-06T01:16:30;98675.63;;;13.58;47.06
76603;BME280;65075;48.390;17.598;2024-01-06T01:18:58;98672.69;;;13.18;47.97
76603;BME280;65075;48.390;17.598;2024-01-06T01:21:25;98672.13;;;12.40;49.14
76603;BME280;65075;48.390;17.598;2024-01-06T01:23:52;98665.59;;;11.44;51.86
76603;BME280;65075;48.390;17.598;2024-01-06T01:26:19;98665.44;;;12.46;49.13
76603;BME280;65075;48.390;17.598;2024-01-06T01:28:46;98671.91;;;12.50;50.46
76603;BME280;65075;48.390;17.598;2024-01-06T01:31:13;98683.75;;;13.13;49.40
76603;BME280;65075;48.390;17.598;2024-01-06T01:33:40;98673.53;;;12.92;49.44
76603;BME280;65075;48.390;17.598;2024-01-06T01:36:07;98665.38;;;11.91;52.43
76603;BME280;65075;48.390;17.598;2024-01-06T01:38:34;98630.25;;;11.15;54.46
76603;BME280;65075;48.390;17.598;2024-01-06T01:41:00;98655.38;;;9.41;60.96
76603;BME280;65075;48.390;17.598;2024-01-06T01:43:28;98663.25;;;9.43;60.61
76603;BME280;65075;48.390;17.598;2024-01-06T01:45:55;98653.19;;;11.33;55.76
76603;BME280;65075;48.390;17.598;2024-01-06T01:48:24;98636.00;;;10.95;55.80
76603;BME280;65075;48.390;17.598;2024-01-06T01:50:53;98658.72;;;12.25;53.68
76603;BME280;65075;48.390;17.598;2024-01-06T01:53:20;98655.28;;;9.51;59.80
76603;BME280;65075;48.390;17.598;2024-01-06T01:55:48;98657.34;;;9.36;63.45
76603;BME280;65075;48.390;17.598;2024-01-06T01:58:16;98659.28;;;10.69;59.79
76603;BME280;65075;48.390;17.598;2024-01-06T02:00:42;98686.69;;;12.22;54.78
76603;BME280;65075;48.390;17.598;2024-01-06T02:03:13;98674.44;;;9.41;64.44
76603;BME280;65075;48.390;17.598;2024-01-06T02:05:40;98653.72;;;10.31;60.82
76603;BME280;65075;48.390;17.598;2024-01-06T02:08:07;98649.16;;;9.69;63.48
76603;BME280;65075;48.390;17.598;2024-01-06T02:10:34;98643.47;;;10.23;62.11
76603;BME280;65075;48.390;17.598;2024-01-06T02:13:11;98657.78;;;10.34;60.89
76603;BME280;65075;48.390;17.598;2024-01-06T02:15:38;98678.34;;;7.62;69.58
76603;BME280;65075;48.390;17.598;2024-01-06T02:18:06;98685.97;;;7.65;74.13
76603;BME280;65075;48.390;17.598;2024-01-06T02:20:34;98649.78;;;8.04;69.38
76603;BME280;65075;48.390;17.598;2024-01-06T02:23:01;98644.06;;;8.06;71.72
76603;BME280;65075;48.390;17.598;2024-01-06T02:25:28;98648.44;;;10.64;62.06
76603;BME280;65075;48.390;17.598;2024-01-06T02:27:55;98636.00;;;11.14;59.52
76603;BME280;65075;48.390;17.598;2024-01-06T02:30:22;98658.34;;;9.06;66.47
76603;BME280;65075;48.390;17.598;2024-01-06T02:32:49;98647.22;;;9.36;66.29
76603;BME280;65075;48.390;17.598;2024-01-06T02:35:15;98649.13;;;10.93;60.61
76603;BME280;65075;48.390;17.598;2024-01-06T02:37:42;98620.03;;;10.65;61.64
76603;BME280;65075;48.390;17.598;2024-01-06T02:40:09;98641.91;;;10.41;63.00
76603;BME280;65075;48.390;17.598;2024-01-06T02:42:36;98649.22;;;12.36;56.68
76603;BME280;65075;48.390;17.598;2024-01-06T02:45:02;98648.19;;;12.86;54.15
76603;BME280;65075;48.390;17.598;2024-01-06T02:47:29;98647.75;;;11.65;57.62
76603;BME280;65075;48.390;17.598;2024-01-06T02:49:55;98655.16;;;12.11;56.97
76603;BME280;65075;48.390;17.598;2024-01-06T02:52:22;98640.78;;;11.40;58.98
76603;BME280;65075;48.390;17.598;2024-01-06T02:54:49;98631.28;;;11.70;56.59
76603;BME280;65075;48.390;17.598;2024-01-06T02:57:18;98658.41;;;11.48;58.44
76603;BME280;65075;48.390;17.598;2024-01-06T02:59:46;98655.19;;;11.09;60.44
76603;BME280;65075;48.390;17.598;2024-01-06T03:02:13;98652.44;;;11.46;58.68
76603;BME280;65075;48.390;17.598;2024-01-06T03:04:39;98645.81;;;11.15;59.38
76603;BME280;65075;48.390;17.598;2024-01-06T03:07:06;98594.94;;;11.37;57.49
76603;BME280;65075;48.390;17.598;2024-01-06T03:09:33;98584.19;;;11.60;57.24
76603;BME280;65075;48.390;17.598;2024-01-06T03:12:00;98640.31;;;12.57;55.40
76603;BME280;65075;48.390;17.598;2024-01-06T03:14:27;98637.34;;;10.55;60.52
76603;BME280;65075;48.390;17.598;2024-01-06T03:16:53;98604.84;;;11.66;58.21
76603;BME280;65075;48.390;17.598;2024-01-06T03:19:20;98634.13;;;11.28;58.59
76603;BME280;65075;48.390;17.598;2024-01-06T03:21:47;98583.41;;;10.89;60.92
76603;BME280;65075;48.390;17.598;2024-01-06T03:24:14;98614.44;;;10.93;61.72
76603;BME280;65075;48.390;17.598;2024-01-06T03:26:39;98609.81;;;10.33;63.13
76603;BME280;65075;48.390;17.598;2024-01-06T03:29:06;98616.72;;;12.07;57.70
76603;BME280;65075;48.390;17.598;2024-01-06T03:31:31;98588.56;;;10.72;60.64
76603;BME280;65075;48.390;17.598;2024-01-06T03:33:58;98611.00;;;10.69;61.30
76603;BME280;65075;48.390;17.598;2024-01-06T03:36:25;98616.69;;;11.61;59.14
76603;BME280;65075;48.390;17.598;2024-01-06T03:38:53;98604.91;;;11.79;57.86
76603;BME280;65075;48.390;17.598;2024-01-06T03:41:19;98605.53;;;10.27;62.06
76603;BME280;65075;48.390;17.598;2024-01-06T03:43:46;98602.69;;;11.81;58.42
76603;BME280;65075;48.390;17.598;2024-01-06T03:46:13;98581.22;;;11.56;59.41
76603;BME280;65075;48.390;17.598;2024-01-06T03:48:40;98584.69;;;10.12;63.74
76603;BME280;65075;48.390;17.598;2024-01-06T03:51:07;98596.50;;;10.50;62.09
76603;BME280;65075;48.390;17.598;2024-01-06T03:53:33;98552.03;;;10.31;61.88
76603;BME280;65075;48.390;17.598;2024-01-06T03:56:00;98551.91;;;10.60;60.34
76603;BME280;65075;48.390;17.598;2024-01-06T03:58:28;98587.13;;;9.90;64.44
76603;BME280;65075;48.390;17.598;2024-01-06T04:00:55;98568.84;;;9.33;66.59
76603;BME280;65075;48.390;17.598;2024-01-06T04:03:22;98574.81;;;9.93;64.49
76603;BME280;65075;48.390;17.598;2024-01-06T04:05:49;98585.97;;;10.20;63.19
76603;BME280;65075;48.390;17.598;2024-01-06T04:08:17;98584.88;;;12.25;58.35
76603;BME280;65075;48.390;17.598;2024-01-06T04:10:44;98590.75;;;11.08;59.48
76603;BME280;65075;48.390;17.598;2024-01-06T04:13:15;98587.09;;;11.82;58.62
76603;BME280;65075;48.390;17.598;2024-01-06T04:15:41;98588.63;;;12.01;58.14
76603;BME280;65075;48.390;17.598;2024-01-06T04:18:08;98603.63;;;12.45;56.60
76603;BME280;65075;48.390;17.598;2024-01-06T04:20:36;98597.50;;;11.80;58.32
76603;BME280;65075;48.390;17.598;2024-01-06T04:23:03;98602.34;;;11.69;59.01
76603;BME280;65075;48.390;17.598;2024-01-06T04:25:30;98602.28;;;11.05;61.48
76603;BME280;65075;48.390;17.598;2024-01-06T04:27:57;98595.81;;;11.65;59.79
76603;BME280;65075;48.390;17.598;2024-01-06T04:30:23;98610.13;;;10.93;61.83
76603;BME280;65075;48.390;17.598;2024-01-06T04:32:52;98613.63;;;10.74;62.55
76603;BME280;65075;48.390;17.598;2024-01-06T04:35:19;98600.19;;;11.34;59.95
76603;BME280;65075;48.390;17.598;2024-01-06T04:37:46;98605.84;;;12.02;58.30
76603;BME280;65075;48.390;17.598;2024-01-06T04:40:14;98586.41;;;12.03;57.46
76603;BME280;65075;48.390;17.598;2024-01-06T04:42:40;98598.06;;;12.63;56.53
76603;BME280;65075;48.390;17.598;2024-01-06T04:45:06;98599.19;;;12.35;57.93
76603;BME280;65075;48.390;17.598;2024-01-06T04:47:33;98595.75;;;12.30;57.08
76603;BME280;65075;48.390;17.598;2024-01-06T04:50:00;98607.97;;;11.27;60.75
76603;BME280;65075;48.390;17.598;2024-01-06T04:52:28;98603.00;;;11.93;59.21
76603;BME280;65075;48.390;17.598;2024-01-06T04:54:56;98611.59;;;11.55;60.29
76603;BME280;65075;48.390;17.598;2024-01-06T04:57:23;98598.50;;;9.68;64.06
76603;BME280;65075;48.390;17.598;2024-01-06T04:59:50;98607.59;;;8.32;70.37
76603;BME280;65075;48.390;17.598;2024-01-06T05:02:15;98597.66;;;9.39;68.94
76603;BME280;65075;48.390;17.598;2024-01-06T05:04:42;98607.56;;;10.11;65.34
76603;BME280;65075;48.390;17.598;2024-01-06T05:07:09;98609.53;;;10.96;62.91
76603;BME280;65075;48.390;17.598;2024-01-06T05:09:36;98628.00;;;11.36;61.22
76603;BME280;65075;48.390;17.598;2024-01-06T05:12:03;98629.22;;;11.30;60.85
76603;BME280;65075;48.390;17.598;2024-01-06T05:14:30;98632.84;;;11.07;61.41
76603;BME280;65075;48.390;17.598;2024-01-06T05:16:57;98631.50;;;11.23;61.47
76603;BME280;65075;48.390;17.598;2024-01-06T05:19:24;98611.78;;;11.77;60.07
76603;BME280;65075;48.390;17.598;2024-01-06T05:21:52;98639.91;;;12.10;59.06
76603;BME280;65075;48.390;17.598;2024-01-06T05:24:19;98631.78;;;13.22;55.79
76603;BME280;65075;48.390;17.598;2024-01-06T05:26:46;98630.78;;;12.55;56.96
76603;BME280;65075;48.390;17.598;2024-01-06T05:29:13;98633.75;;;11.85;59.74
76603;BME280;65075;48.390;17.598;2024-01-06T05:31:40;98629.25;;;12.22;59.17
76603;BME280;65075;48.390;17.598;2024-01-06T05:34:07;98647.94;;;11.55;59.98
76603;BME280;65075;48.390;17.598;2024-01-06T05:36:33;98619.03;;;10.98;61.45
76603;BME280;65075;48.390;17.598;2024-01-06T05:39:00;98619.63;;;11.97;59.42
76603;BME280;65075;48.390;17.598;2024-01-06T05:41:27;98639.50;;;11.52;59.95
76603;BME280;65075;48.390;17.598;2024-01-06T05:43:54;98645.66;;;11.43;61.42
76603;BME280;65075;48.390;17.598;2024-01-06T05:46:22;98634.47;;;9.65;67.94
76603;BME280;65075;48.390;17.598;2024-01-06T05:48:49;98645.94;;;11.05;63.10
76603;BME280;65075;48.390;17.598;2024-01-06T05:51:16;98640.56;;;11.00;62.77
76603;BME280;65075;48.390;17.598;2024-01-06T05:53:43;98649.56;;;11.88;60.66
76603;BME280;65075;48.390;17.598;2024-01-06T05:56:09;98637.41;;;9.40;67.56
76603;BME280;65075;48.390;17.598;2024-01-06T05:58:36;98677.97;;;11.55;60.18
76603;BME280;65075;48.390;17.598;2024-01-06T06:01:05;98668.69;;;11.37;61.94
76603;BME280;65075;48.390;17.598;2024-01-06T06:03:32;98677.34;;;13.04;56.06
76603;BME280;65075;48.390;17.598;2024-01-06T06:05:58;98670.41;;;12.71;56.61
76603;BME280;65075;48.390;17.598;2024-01-06T06:08:25;98671.00;;;10.22;65.47
76603;BME280;65075;48.390;17.598;2024-01-06T06:10:51;98672.72;;;10.84;62.45
76603;BME280;65075;48.390;17.598;2024-01-06T06:13:29;98614.13;;;9.24;67.55
76603;BME280;65075;48.390;17.598;2024-01-06T06:15:55;98665.47;;;8.97;70.09
76603;BME280;65075;48.390;17.598;2024-01-06T06:18:23;98664.94;;;8.21;74.04
76603;BME280;65075;48.390;17.598;2024-01-06T06:20:50;98675.03;;;8.15;75.50
76603;BME280;65075;48.390;17.598;2024-01-06T06:23:17;98677.56;;;8.71;73.86
76603;BME280;65075;48.390;17.598;2024-01-06T06:25:43;98666.84;;;10.96;64.69
76603;BME280;65075;48.390;17.598;2024-01-06T06:28:10;98691.78;;;9.50;70.24
76603;BME280;65075;48.390;17.598;2024-01-06T06:30:38;98693.75;;;10.36;65.53
76603;BME280;65075;48.390;17.598;2024-01-06T06:33:05;98679.44;;;7.76;77.07
76603;BME280;65075;48.390;17.598;2024-01-06T06:35:31;98686.16;;;9.75;69.40
76603;BME280;65075;48.390;17.598;2024-01-06T06:37:58;98675.72;;;9.83;68.62
76603;BME280;65075;48.390;17.598;2024-01-06T06:40:25;98671.28;;;7.76;75.98
76603;BME280;65075;48.390;17.598;2024-01-06T06:42:51;98675.25;;;8.44;74.54
76603;BME280;65075;48.390;17.598;2024-01-06T06:45:17;98663.84;;;8.96;73.26
76603;BME280;65075;48.390;17.598;2024-01-06T06:47:48;98675.00;;;9.33;72.27
76603;BME280;65075;48.390;17.598;2024-01-06T06:50:16;98666.00;;;8.40;74.42
76603;BME280;65075;48.390;17.598;2024-01-06T06:52:44;98678.28;;;10.98;65.50
76603;BME280;65075;48.390;17.598;2024-01-06T06:55:11;98675.16;;;11.60;64.04
76603;BME280;65075;48.390;17.598;2024-01-06T06:57:38;98678.13;;;11.45;63.09
76603;BME280;65075;48.390;17.598;2024-01-06T07:00:06;98660.09;;;8.87;71.73
76603;BME280;65075;48.390;17.598;2024-01-06T07:02:34;98660.72;;;7.39;78.97
76603;BME280;65075;48.390;17.598;2024-01-06T07:05:01;98652.00;;;7.57;79.09
76603;BME280;65075;48.390;17.598;2024-01-06T07:07:30;98669.09;;;7.78;79.17
76603;BME280;65075;48.390;17.598;2024-01-06T07:09:56;98668.00;;;7.99;77.38
76603;BME280;65075;48.390;17.598;2024-01-06T07:12:23;98620.78;;;6.84;81.54
76603;BME280;65075;48.390;17.598;2024-01-06T07:14:50;98651.75;;;7.38;79.52
76603;BME280;65075;48.390;17.598;2024-01-06T07:17:20;98660.94;;;7.22;81.13
76603;BME280;65075;48.390;17.598;2024-01-06T07:19:48;98646.56;;;7.62;79.73
76603;BME280;65075;48.390;17.598;2024-01-06T07:22:15;98666.00;;;9.71;73.14
76603;BME280;65075;48.390;17.598;2024-01-06T07:24:43;98658.13;;;10.93;65.34
76603;BME280;65075;48.390;17.598;2024-01-06T07:27:10;98638.97;;;9.80;68.23
76603;BME280;65075;48.390;17.598;2024-01-06T07:29:37;98668.00;;;9.27;70.84
76603;BME280;65075;48.390;17.598;2024-01-06T07:32:06;98672.69;;;9.55;72.22
76603;BME280;65075;48.390;17.598;2024-01-06T07:34:33;98664.13;;;10.01;70.36
76603;BME280;65075;48.390;17.598;2024-01-06T07:37:00;98646.00;;;10.15;67.44
76603;BME280;65075;48.390;17.598;2024-01-06T07:39:27;98653.75;;;10.50;67.68
76603;BME280;65075;48.390;17.598;2024-01-06T07:41:55;98676.34;;;9.74;71.34
76603;BME280;65075;48.390;17.598;2024-01-06T07:44:21;98668.56;;;11.80;62.91
76603;BME280;65075;48.390;17.598;2024-01-06T07:46:52;98657.06;;;11.96;62.04
76603;BME280;65075;48.390;17.598;2024-01-06T07:49:19;98695.69;;;12.09;61.73
76603;BME280;65075;48.390;17.598;2024-01-06T07:51:45;98678.19;;;11.40;64.24
76603;BME280;65075;48.390;17.598;2024-01-06T07:54:15;98692.47;;;12.34;61.81
76603;BME280;65075;48.390;17.598;2024-01-06T07:56:42;98672.84;;;10.50;65.40
76603;BME280;65075;48.390;17.598;2024-01-06T07:59:10;98683.44;;;13.29;58.93
76603;BME280;65075;48.390;17.598;2024-01-06T08:01:37;98686.78;;;10.25;66.79
76603;BME280;65075;48.390;17.598;2024-01-06T08:04:04;98692.34;;;12.12;61.86
76603;BME280;65075;48.390;17.598;2024-01-06T08:06:31;98713.63;;;11.82;63.60
76603;BME280;65075;48.390;17.598;2024-01-06T08:08:58;98706.00;;;11.79;63.15
76603;BME280;65075;48.390;17.598;2024-01-06T08:11:24;98698.22;;;11.73;62.22
76603;BME280;65075;48.390;17.598;2024-01-06T08:13:51;98708.16;;;12.15;61.64
76603;BME280;65075;48.390;17.598;2024-01-06T08:16:18;98710.13;;;11.95;61.85
76603;BME280;65075;48.390;17.598;2024-01-06T08:18:45;98704.06;;;11.98;63.11
76603;BME280;65075;48.390;17.598;2024-01-06T08:21:12;98696.84;;;12.48;61.90
76603;BME280;65075;48.390;17.598;2024-01-06T08:23:39;98702.22;;;12.40;60.45
76603;BME280;65075;48.390;17.598;2024-01-06T08:26:09;98680.13;;;8.42;74.33
76603;BME280;65075;48.390;17.598;2024-01-06T08:28:35;98701.09;;;8.21;77.51
76603;BME280;65075;48.390;17.598;2024-01-06T08:31:02;98656.09;;;7.49;81.53
76603;BME280;65075;48.390;17.598;2024-01-06T08:33:29;98684.03;;;7.40;83.91
76603;BME280;65075;48.390;17.598;2024-01-06T08:35:56;98694.09;;;7.70;81.70
76603;BME280;65075;48.390;17.598;2024-01-06T08:38:22;98702.94;;;9.10;77.71
76603;BME280;65075;48.390;17.598;2024-01-06T08:40:49;98703.44;;;9.17;74.34
76603;BME280;65075;48.390;17.598;2024-01-06T08:43:16;98685.47;;;8.62;78.70
76603;BME280;65075;48.390;17.598;2024-01-06T08:45:43;98707.09;;;8.03;80.58
76603;BME280;65075;48.390;17.598;2024-01-06T08:48:10;98669.09;;;7.68;81.10
76603;BME280;65075;48.390;17.598;2024-01-06T08:50:39;98700.09;;;9.98;74.31
76603;BME280;65075;48.390;17.598;2024-01-06T08:53:05;98695.66;;;10.59;71.75
76603;BME280;65075;48.390;17.598;2024-01-06T08:55:32;98700.59;;;10.81;69.57
76603;BME280;65075;48.390;17.598;2024-01-06T08:57:59;98687.63;;;9.24;75.36
76603;BME280;65075;48.390;17.598;2024-01-06T09:00:26;98706.25;;;10.84;70.77
76603;BME280;65075;48.390;17.598;2024-01-06T09:02:53;98709.28;;;11.81;65.48
76603;BME280;65075;48.390;17.598;2024-01-06T09:05:19;98699.38;;;11.48;67.33
76603;BME280;65075;48.390;17.598;2024-01-06T09:07:46;98695.53;;;11.30;65.92
76603;BME280;65075;48.390;17.598;2024-01-06T09:10:17;98697.75;;;12.85;61.54
76603;BME280;65075;48.390;17.598;2024-01-06T09:12:44;98697.91;;;11.74;65.99
76603;BME280;65075;48.390;17.598;2024-01-06T09:15:11;98699.97;;;12.28;63.64
76603;BME280;65075;48.390;17.598;2024-01-06T09:17:38;98701.34;;;10.86;69.60
76603;BME280;65075;48.390;17.598;2024-01-06T09:20:05;98680.72;;;11.87;66.70
76603;BME280;65075;48.390;17.598;2024-01-06T09:22:32;98695.59;;;11.63;66.42
76603;BME280;65075;48.390;17.598;2024-01-06T09:24:59;98693.19;;;9.76;74.04
76603;BME280;65075;48.390;17.598;2024-01-06T09:27:26;98693.22;;;12.67;63.41
76603;BME280;65075;48.390;17.598;2024-01-06T09:29:53;98702.44;;;10.85;69.06
76603;BME280;65075;48.390;17.598;2024-01-06T09:32:20;98706.09;;;11.18;68.36
76603;BME280;65075;48.390;17.598;2024-01-06T09:34:49;98718.75;;;12.02;66.11
76603;BME280;65075;48.390;17.598;2024-01-06T09:37:15;98721.94;;;11.91;66.78
76603;BME280;65075;48.390;17.598;2024-01-06T09:39:42;98727.53;;;9.77;71.70
76603;BME280;65075;48.390;17.598;2024-01-06T09:42:07;98703.00;;;9.00;76.75
76603;BME280;65075;48.390;17.598;2024-01-06T09:44:34;98708.06;;;11.50;67.95
76603;BME280;65075;48.390;17.598;2024-01-06T09:47:01;98691.69;;;10.94;69.40
76603;BME280;65075;48.390;17.598;2024-01-06T09:49:32;98679.00;;;11.03;69.53
76603;BME280;65075;48.390;17.598;2024-01-06T09:52:04;98654.56;;;11.49;67.33
76603;BME280;65075;48.390;17.598;2024-01-06T09:54:36;98697.63;;;11.20;67.96
76603;BME280;65075;48.390;17.598;2024-01-06T09:57:08;98693.03;;;11.15;68.48
76603;BME280;65075;48.390;17.598;2024-01-06T09:59:35;98686.25;;;11.31;69.06
76603;BME280;65075;48.390;17.598;2024-01-06T10:02:04;98696.75;;;12.53;63.69
76603;BME280;65075;48.390;17.598;2024-01-06T10:04:31;98695.38;;;10.37;72.30
76603;BME280;65075;48.390;17.598;2024-01-06T10:06:59;98688.44;;;11.48;67.78
76603;BME280;65075;48.390;17.598;2024-01-06T10:09:29;98693.59;;;10.93;68.56
76603;BME280;65075;48.390;17.598;2024-01-06T10:11:56;98700.19;;;12.32;64.71
76603;BME280;65075;48.390;17.598;2024-01-06T10:14:23;98695.69;;;11.58;66.14
76603;BME280;65075;48.390;17.598;2024-01-06T10:16:54;98675.22;;;10.99;68.35
76603;BME280;65075;48.390;17.598;2024-01-06T10:19:20;98684.84;;;11.15;68.09
76603;BME280;65075;48.390;17.598;2024-01-06T10:21:48;98684.09;;;12.44;63.88
76603;BME280;65075;48.390;17.598;2024-01-06T10:24:17;98685.66;;;11.34;67.31
76603;BME280;65075;48.390;17.598;2024-01-06T10:26:46;98688.97;;;11.31;68.25
76603;BME280;65075;48.390;17.598;2024-01-06T10:29:13;98675.13;;;12.25;64.00
76603;BME280;65075;48.390;17.598;2024-01-06T10:31:44;98664.31;;;9.47;75.83
76603;BME280;65075;48.390;17.598;2024-01-06T10:34:10;98678.97;;;10.84;70.16
76603;BME280;65075;48.390;17.598;2024-01-06T10:36:37;98673.91;;;11.34;67.86
76603;BME280;65075;48.390;17.598;2024-01-06T10:39:05;98662.72;;;12.46;63.70
76603;BME280;65075;48.390;17.598;2024-01-06T10:41:34;98682.47;;;12.29;64.24
76603;BME280;65075;48.390;17.598;2024-01-06T10:44:02;98682.38;;;12.02;65.11
76603;BME280;65075;48.390;17.598;2024-01-06T10:46:30;98680.75;;;12.47;63.62
76603;BME280;65075;48.390;17.598;2024-01-06T10:48:58;98681.97;;;11.07;68.66
76603;BME280;65075;48.390;17.598;2024-01-06T10:51:29;98691.16;;;11.85;66.75
76603;BME280;65075;48.390;17.598;2024-01-06T10:54:01;98652.41;;;11.97;64.80
76603;BME280;65075;48.390;17.598;2024-01-06T10:56:30;98683.66;;;10.60;70.14
76603;BME280;65075;48.390;17.598;2024-01-06T10:58:57;98678.03;;;13.59;61.40
76603;BME280;65075;48.390;17.598;2024-01-06T11:01:24;98672.84;;;12.73;62.56
76603;BME280;65075;48.390;17.598;2024-01-06T11:03:52;98659.19;;;11.99;64.47
76603;BME280;65075;48.390;17.598;2024-01-06T11:06:21;98653.31;;;10.85;70.36
76603;BME280;65075;48.390;17.598;2024-01-06T11:09:04;98660.00;;;10.32;71.95
76603;BME280;65075;48.390;17.598;2024-01-06T11:11:35;98671.22;;;11.66;67.56
76603;BME280;65075;48.390;17.598;2024-01-06T11:14:25;98667.03;;;11.55;70.00
76603;BME280;65075;48.390;17.598;2024-01-06T11:16:53;98649.19;;;13.62;61.33
76603;BME280;65075;48.390;17.598;2024-01-06T11:19:44;98638.50;;;12.67;64.49
76603;BME280;65075;48.390;17.598;2024-01-06T11:22:29;98629.66;;;12.83;63.67
76603;BME280;65075;48.390;17.598;2024-01-06T11:25:07;98632.47;;;12.92;62.18
76603;BME280;65075;48.390;17.598;2024-01-06T11:27:35;98638.81;;;11.09;70.35
76603;BME280;65075;48.390;17.598;2024-01-06T11:30:04;98632.88;;;11.02;69.27
76603;BME280;65075;48.390;17.598;2024-01-06T11:32:38;98629.16;;;12.81;64.40
76603;BME280;65075;48.390;17.598;2024-01-06T11:35:14;98631.16;;;12.89;62.86
76603;BME280;65075;48.390;17.598;2024-01-06T11:40:25;98635.69;;;13.21;62.51
76603;BME280;65075;48.390;17.598;2024-01-06T11:43:06;98639.63;;;11.60;68.10
76603;BME280;65075;48.390;17.598;2024-01-06T11:45:35;98632.09;;;12.71;63.90
76603;BME280;65075;48.390;17.598;2024-01-06T11:48:05;98608.47;;;11.93;66.85
76603;BME280;65075;48.390;17.598;2024-01-06T11:50:37;98605.97;;;11.14;69.16
76603;BME280;65075;48.390;17.598;2024-01-06T11:53:07;98607.22;;;11.72;67.23
76603;BME280;65075;48.390;17.598;2024-01-06T11:55:38;98625.56;;;10.60;70.96
76603;BME280;65075;48.390;17.598;2024-01-06T11:58:05;98623.69;;;9.50;78.51
76603;BME280;65075;48.390;17.598;2024-01-06T12:00:34;98612.31;;;12.74;65.33
76603;BME280;65075;48.390;17.598;2024-01-06T12:03:02;98630.53;;;12.92;62.91
76603;BME280;65075;48.390;17.598;2024-01-06T12:05:30;98635.75;;;12.26;66.49
76603;BME280;65075;48.390;17.598;2024-01-06T12:08:03;98619.78;;;13.09;62.60
76603;BME280;65075;48.390;17.598;2024-01-06T12:10:33;98621.25;;;10.77;71.24
76603;BME280;65075;48.390;17.598;2024-01-06T12:13:07;98588.19;;;10.18;72.78
76603;BME280;65075;48.390;17.598;2024-01-06T12:15:37;98624.69;;;11.90;67.88
76603;BME280;65075;48.390;17.598;2024-01-06T12:18:06;98616.28;;;9.61;77.66
76603;BME280;65075;48.390;17.598;2024-01-06T12:20:34;98630.31;;;11.29;72.21
76603;BME280;65075;48.390;17.598;2024-01-06T12:23:00;98614.28;;;11.73;70.16
76603;BME280;65075;48.390;17.598;2024-01-06T12:25:27;98631.19;;;12.21;67.61
76603;BME280;65075;48.390;17.598;2024-01-06T12:27:55;98630.91;;;12.99;64.42
76603;BME280;65075;48.390;17.598;2024-01-06T12:30:22;98630.59;;;12.38;65.73
76603;BME280;65075;48.390;17.598;2024-01-06T12:32:50;98616.78;;;12.84;62.51
76603;BME280;65075;48.390;17.598;2024-01-06T12:35:20;98620.75;;;12.50;65.42
76603;BME280;65075;48.390;17.598;2024-01-06T12:37:48;98611.00;;;10.69;71.70
76603;BME280;65075;48.390;17.598;2024-01-06T12:40:16;98621.88;;;12.36;67.23
76603;BME280;65075;48.390;17.598;2024-01-06T12:42:43;98588.53;;;13.55;60.73
76603;BME280;65075;48.390;17.598;2024-01-06T12:45:10;98605.66;;;12.26;64.81
76603;BME280;65075;48.390;17.598;2024-01-06T12:47:37;98612.97;;;11.20;70.78
76603;BME280;65075;48.390;17.598;2024-01-06T12:50:05;98616.84;;;12.92;64.70
76603;BME280;65075;48.390;17.598;2024-01-06T12:52:32;98596.44;;;11.62;66.94
76603;BME280;65075;48.390;17.598;2024-01-06T12:55:00;98619.09;;;11.12;68.81
76603;BME280;65075;48.390;17.598;2024-01-06T12:57:29;98619.88;;;10.56;73.33